Yeoman, Indiana
Current Conditions -  °F | °C
As of 8:35 PM on Monday 20 Oct 2014 (Local Time) from KMCX Reporting Station
Overcast Overcast  
Wind Chill: 55°   Ceiling: 4000
Heat Index: 55°   Visibility: 10mi
Dew Point: 48°   Wind: 10mph
Humidity: 76%   Direction: 350°N
Pressure: 29.93"   Gusts: 18mph
Location:  40.67°N, 86.72°W
Report Text: KMCX 210035Z AUTO 35009G16KT 10SM BKN040 OVC046 13/09 A2993 RMK AO2 T01290087
Loading
Personal Weather Stations






























Interactive Weather Map
Tropical Storm Tracking
New forecast layout! Learn more

10-Day Weather Forecast

Advertisements
Track Severe Weather on mobile